DW2989 Weather Reports


time (UTC)temp
F
wind
direction
speed
knots
gust
knots
rain 1hr
in
rain 24hr
in
rain mn
in
humidity
%
barometer
mb
20260906220001 81 348 13.0 20.0 0.00 0.00 0.00 18 1002.9
20260906214610 82 360 14.8 23.5 0.00 0.00 0.00 19 1003.1
20260906213100 82 265 13.0 23.5 0.00 0.00 0.00 19 1003.0
20260906211604 83 240 10.4 20.0 0.00 0.00 0.00 18 1003.0
20260906210115 83 304 9.6 20.0 0.00 0.00 0.00 19 1003.2
20260906204612 83 240 13.0 19.1 0.00 0.00 0.00 19 1003.0
20260906203056 82 271 12.2 20.0 0.00 0.00 0.00 20 1003.2
20260906201556 82 271 8.7 18.2 0.00 0.00 0.00 20 1003.2
20260906200055 82 282 8.7 17.4 0.00 0.00 0.00 20 1003.5
20260906194557 82 225 8.7 20.9 0.00 0.00 0.00 19 1003.9
20260906193054 82 248 12.2 20.0 0.00 0.00 0.00 19 1004.2
20260906191605 82 301 10.4 22.6 0.00 0.00 0.00 19 1004.6
20260906190153 82 257 15.6 23.5 0.00 0.00 0.00 20 1005.0
20260906184554 81 360 12.2 23.5 0.00 0.00 0.00 21 1005.0
20260906183053 81 293 9.6 21.7 0.00 0.00 0.00 21 1005.2
20260906181551 80 225 10.4 20.9 0.00 0.00 0.00 20 1005.4
20260906180107 80 244 10.4 19.1 0.00 0.00 0.00 21 1006.0
20260906174558 79 360 7.8 19.1 0.00 0.00 0.00 21 1006.2
20260906173056 79 244 7.0 14.8 0.00 0.00 0.00 21 1006.5
20260906171549 78 285 10.4 17.4 0.00 0.00 0.00 21 1006.7
20260906170049 76 256 8.7 19.1 0.00 0.00 0.00 23 1006.9
20260906164548 75 227 11.3 19.1 0.00 0.00 0.00 25 1006.8
20260906163055 74 265 9.6 16.5 0.00 0.00 0.00 27 1006.9
20260906161547 72 360 7.0 15.6 0.00 0.00 0.00 30 1007.0
20260906160048 71 247 9.6 14.8 0.00 0.00 0.00 30 1007.1
20260906154551 70 269 9.6 17.4 0.00 0.00 0.00 33 1007.2
20260906153110 69 360 7.8 12.2 0.00 0.00 0.00 34 1007.3
20260906151555 68 228 8.7 13.0 0.00 0.00 0.00 35 1007.4
20260906150046 67 233 0.0 9.6 0.00 0.00 0.00 37 1007.6
20260906144550 66 235 5.2 8.7 0.00 0.00 0.00 38 1007.5
20260906143048 64 233 4.3 10.4 0.00 0.00 0.00 41 1007.4
20260906141546 62 225 3.5 8.7 0.00 0.00 0.00 43 1007.4
20260906140043 62 269 5.2 7.8 0.00 0.00 0.00 44 1007.3
20260906134603 61 238 1.7 7.8 0.00 0.00 0.00 42 1007.2
20260906133050 61 250 1.7 5.2 0.00 0.00 0.00 42 1007.2
20260906131540 60 234 0.9 4.3 0.00 0.00 0.00 42 1007.1
20260906130041 60 221 0.9 7.0 0.00 0.00 0.00 42 1007.1
20260906124538 60 151 0.0 7.8 0.00 0.00 0.00 41 1006.9
20260906123052 60 250 6.1 9.6 0.00 0.00 0.00 42 1006.8
20260906121542 56 101 5.2 8.7 0.00 0.00 0.00 46 1006.8
20260906120037 57 162 0.0 0.9 0.00 0.00 0.00 46 1006.8
20260906114537 57 162 0.0 1.7 0.00 0.00 0.00 44 1006.9
20260906113036 57 221 1.7 6.1 0.00 0.00 0.00 46 1006.9
20260906111535 53 154 0.9 4.3 0.00 0.00 0.00 51 1006.8
20260906110033 50 160 0.9 2.6 0.00 0.00 0.00 53 1006.8
20260906104534 51 160 0.0 5.2 0.00 0.00 0.00 52 1006.5
20260906103032 53 165 0.0 5.2 0.00 0.00 0.00 48 1006.5
20260906101532 51 220 0.9 4.3 0.00 0.00 0.00 53 1006.5
20260906100033 50 221 0.0 2.6 0.00 0.00 0.00 53 1006.4
20260906094528 50 222 0.0 3.5 0.00 0.00 0.00 52 1006.3
20260906093036 51 149 0.0 1.7 0.00 0.00 0.00 51 1006.2
20260906091523 52 148 0.0 5.2 0.00 0.00 0.00 49 1006.3
20260906090036 53 148 1.7 4.3 0.00 0.00 0.00 46 1006.1
20260906084518 55 242 0.0 3.5 0.00 0.00 0.00 45 1005.9
20260906083015 56 243 2.6 4.3 0.00 0.00 0.00 43 1005.8
20260906081517 57 246 1.7 7.0 0.00 0.00 0.00 42 1005.8
20260906080015 56 223 1.7 5.2 0.00 0.00 0.00 44 1005.9
20260906074513 57 260 0.0 0.0 0.00 0.00 0.00 42 1005.9
20260906073010 58 269 0.0 1.7 0.00 0.00 0.00 42 1005.9
20260906071507 58 276 2.6 6.1 0.00 0.00 0.00 40 1005.7
20260906070006 59 268 3.5 7.0 0.00 0.00 0.00 39 1005.6
20260906064505 59 240 0.0 1.7 0.00 0.00 0.00 39 1005.7
20260906063004 59 241 0.0 2.6 0.00 0.00 0.00 39 1005.5
20260906061604 61 94 0.0 0.9 0.00 0.00 0.00 37 1005.6
20260906060059 62 93 0.0 0.0 0.00 0.00 0.00 36 1005.5
20260906054558 62 93 0.0 1.7 0.00 0.00 0.00 36 1005.6
20260906053057 63 93 0.0 7.0 0.00 0.00 0.00 35 1005.7
20260906051603 62 65 0.9 3.5 0.00 0.00 0.00 36 1005.7
20260906050107 63 279 2.6 6.1 0.00 0.00 0.00 35 1005.7
20260906044554 64 271 5.2 9.6 0.00 0.00 0.00 33 1005.6
20260906043058 65 360 6.1 8.7 0.00 0.00 0.00 33 1005.6
20260906041548 66 265 6.1 9.6 0.00 0.00 0.00 32 1005.5
20260906040048 67 256 5.2 8.7 0.00 0.00 0.00 31 1005.5
20260906034606 69 248 7.8 10.4 0.00 0.00 0.00 29 1005.6
20260906033047 68 262 7.8 11.3 0.00 0.00 0.00 30 1005.5
20260906031550 67 254 3.5 7.8 0.00 0.00 0.00 30 1005.4
20260906030043 67 262 3.5 5.2 0.00 0.00 0.00 31 1005.4
20260906024538 67 248 0.9 6.1 0.00 0.00 0.00 30 1005.0
20260906023035 69 276 3.5 6.1 0.00 0.00 0.00 29 1004.8
20260906021531 70 274 5.2 7.0 0.00 0.00 0.00 29 1004.5
20260906020027 71 271 4.3 6.1 0.00 0.00 0.00 27 1004.3
20260906014528 74 275 3.5 6.1 0.00 0.00 0.00 24 1004.2
20260906013020 77 285 6.1 9.6 0.00 0.00 0.00 22 1004.1
20260906011515 79 271 7.8 13.0 0.00 0.00 0.00 20 1004.2
20260906010013 80 271 9.6 13.9 0.00 0.00 0.00 20 1004.1
20260906004508 81 360 7.0 14.8 0.00 0.00 0.00 21 1004.0
20260906003006 82 248 7.8 15.6 0.00 0.00 0.00 21 1003.9
20260906001504 82 360 9.6 18.2 0.00 0.00 0.00 21 1003.8
20260906000004 83 315 7.0 16.5 0.00 0.00 0.00 20 1003.9
20260905234500 84 360 12.2 16.5 0.00 0.00 0.00 19 1003.8
20260905233059 84 360 13.0 18.2 0.00 0.00 0.00 19 1003.9
20260905231604 85 281 9.6 15.6 0.00 0.00 0.00 19 1003.6
20260905224554 84 278 12.2 17.4 0.00 0.00 0.00 21 1003.8
20260905223056 84 285 13.9 22.6 0.00 0.00 0.00 21 1003.8
20260905221555 85 295 9.6 18.2 0.00 0.00 0.00 21 1003.9